sensor_id;sensor_type;location;lat;lon;timestamp;P1;durP1;ratioP1;P2;durP2;ratioP2
37203;SDS011;23098;48.054;10.636;2022-08-01T00:01:34;5.57;;;2.58;;
37203;SDS011;23098;48.054;10.636;2022-08-01T00:03:59;3.22;;;2.25;;
37203;SDS011;23098;48.054;10.636;2022-08-01T00:06:25;2.60;;;2.40;;
37203;SDS011;23098;48.054;10.636;2022-08-01T00:08:51;4.15;;;2.80;;
37203;SDS011;23098;48.054;10.636;2022-08-01T00:11:16;2.80;;;2.60;;
37203;SDS011;23098;48.054;10.636;2022-08-01T00:13:42;3.38;;;2.50;;
37203;SDS011;23098;48.054;10.636;2022-08-01T00:16:07;2.67;;;2.22;;
37203;SDS011;23098;48.054;10.636;2022-08-01T00:18:33;2.70;;;2.50;;
37203;SDS011;23098;48.054;10.636;2022-08-01T00:21:00;5.63;;;2.80;;
37203;SDS011;23098;48.054;10.636;2022-08-01T00:23:26;6.47;;;2.70;;
37203;SDS011;23098;48.054;10.636;2022-08-01T00:25:52;3.03;;;2.72;;
37203;SDS011;23098;48.054;10.636;2022-08-01T00:28:17;3.58;;;2.53;;
37203;SDS011;23098;48.054;10.636;2022-08-01T00:30:43;4.57;;;2.83;;
37203;SDS011;23098;48.054;10.636;2022-08-01T00:33:09;4.35;;;2.72;;
37203;SDS011;23098;48.054;10.636;2022-08-01T00:35:34;3.67;;;2.83;;
37203;SDS011;23098;48.054;10.636;2022-08-01T00:38:00;4.38;;;2.97;;
37203;SDS011;23098;48.054;10.636;2022-08-01T00:40:25;3.08;;;2.78;;
37203;SDS011;23098;48.054;10.636;2022-08-01T00:42:51;4.22;;;3.25;;
37203;SDS011;23098;48.054;10.636;2022-08-01T00:45:16;2.88;;;2.67;;
37203;SDS011;23098;48.054;10.636;2022-08-01T00:47:42;6.05;;;2.90;;
37203;SDS011;23098;48.054;10.636;2022-08-01T00:50:08;3.65;;;2.97;;
37203;SDS011;23098;48.054;10.636;2022-08-01T00:52:34;4.15;;;2.80;;
37203;SDS011;23098;48.054;10.636;2022-08-01T00:55:00;4.78;;;2.85;;
37203;SDS011;23098;48.054;10.636;2022-08-01T00:57:26;3.35;;;2.80;;
37203;SDS011;23098;48.054;10.636;2022-08-01T00:59:52;3.30;;;3.00;;
37203;SDS011;23098;48.054;10.636;2022-08-01T01:02:18;3.25;;;2.70;;
37203;SDS011;23098;48.054;10.636;2022-08-01T01:04:44;3.20;;;2.80;;
37203;SDS011;23098;48.054;10.636;2022-08-01T01:07:13;5.25;;;3.40;;
37203;SDS011;23098;48.054;10.636;2022-08-01T01:12:23;3.70;;;2.80;;
37203;SDS011;23098;48.054;10.636;2022-08-01T01:17:34;3.33;;;2.92;;
37203;SDS011;23098;48.054;10.636;2022-08-01T01:20:03;4.07;;;2.80;;
37203;SDS011;23098;48.054;10.636;2022-08-01T01:25:54;3.22;;;3.00;;
37203;SDS011;23098;48.054;10.636;2022-08-01T01:28:40;5.32;;;3.03;;
37203;SDS011;23098;48.054;10.636;2022-08-01T01:31:24;4.75;;;2.80;;
37203;SDS011;23098;48.054;10.636;2022-08-01T01:33:51;3.38;;;2.90;;
37203;SDS011;23098;48.054;10.636;2022-08-01T01:36:19;5.55;;;3.15;;
37203;SDS011;23098;48.054;10.636;2022-08-01T01:38:49;3.13;;;2.83;;
37203;SDS011;23098;48.054;10.636;2022-08-01T01:41:17;3.60;;;3.30;;
37203;SDS011;23098;48.054;10.636;2022-08-01T01:43:43;5.63;;;3.00;;
37203;SDS011;23098;48.054;10.636;2022-08-01T01:46:11;4.75;;;3.20;;
37203;SDS011;23098;48.054;10.636;2022-08-01T01:48:40;3.55;;;2.83;;
37203;SDS011;23098;48.054;10.636;2022-08-01T01:51:09;3.45;;;3.03;;
37203;SDS011;23098;48.054;10.636;2022-08-01T01:53:36;3.53;;;3.10;;
37203;SDS011;23098;48.054;10.636;2022-08-01T01:56:02;3.75;;;2.85;;
37203;SDS011;23098;48.054;10.636;2022-08-01T01:58:28;3.78;;;2.95;;
37203;SDS011;23098;48.054;10.636;2022-08-01T02:00:57;3.08;;;2.75;;
37203;SDS011;23098;48.054;10.636;2022-08-01T02:03:25;3.58;;;2.95;;
37203;SDS011;23098;48.054;10.636;2022-08-01T02:05:52;5.20;;;2.90;;
37203;SDS011;23098;48.054;10.636;2022-08-01T02:08:19;3.13;;;2.83;;
37203;SDS011;23098;48.054;10.636;2022-08-01T02:10:48;3.95;;;3.17;;
37203;SDS011;23098;48.054;10.636;2022-08-01T02:13:36;3.30;;;3.00;;
37203;SDS011;23098;48.054;10.636;2022-08-01T02:16:03;5.63;;;3.00;;
37203;SDS011;23098;48.054;10.636;2022-08-01T02:18:30;3.20;;;2.90;;
37203;SDS011;23098;48.054;10.636;2022-08-01T02:20:57;3.30;;;3.00;;
37203;SDS011;23098;48.054;10.636;2022-08-01T02:23:25;3.40;;;3.10;;
37203;SDS011;23098;48.054;10.636;2022-08-01T02:25:55;4.57;;;3.25;;
37203;SDS011;23098;48.054;10.636;2022-08-01T02:28:24;3.25;;;2.85;;
37203;SDS011;23098;48.054;10.636;2022-08-01T02:30:54;6.40;;;2.95;;
37203;SDS011;23098;48.054;10.636;2022-08-01T02:33:27;4.70;;;3.25;;
37203;SDS011;23098;48.054;10.636;2022-08-01T02:35:59;4.65;;;2.97;;
37203;SDS011;23098;48.054;10.636;2022-08-01T02:38:28;3.20;;;2.85;;
37203;SDS011;23098;48.054;10.636;2022-08-01T02:40:56;3.35;;;3.05;;
37203;SDS011;23098;48.054;10.636;2022-08-01T02:43:24;3.20;;;2.90;;
37203;SDS011;23098;48.054;10.636;2022-08-01T02:45:53;3.75;;;3.20;;
37203;SDS011;23098;48.054;10.636;2022-08-01T02:48:23;4.22;;;3.10;;
37203;SDS011;23098;48.054;10.636;2022-08-01T02:50:51;3.70;;;2.95;;
37203;SDS011;23098;48.054;10.636;2022-08-01T02:53:19;6.13;;;3.20;;
37203;SDS011;23098;48.054;10.636;2022-08-01T02:55:48;3.55;;;2.90;;
37203;SDS011;23098;48.054;10.636;2022-08-01T02:58:16;6.93;;;3.08;;
37203;SDS011;23098;48.054;10.636;2022-08-01T03:00:45;4.07;;;2.67;;
37203;SDS011;23098;48.054;10.636;2022-08-01T03:03:12;3.38;;;3.08;;
37203;SDS011;23098;48.054;10.636;2022-08-01T03:05:40;3.50;;;2.67;;
37203;SDS011;23098;48.054;10.636;2022-08-01T03:08:07;5.43;;;3.00;;
37203;SDS011;23098;48.054;10.636;2022-08-01T03:10:35;3.00;;;2.70;;
37203;SDS011;23098;48.054;10.636;2022-08-01T03:13:04;5.68;;;2.88;;
37203;SDS011;23098;48.054;10.636;2022-08-01T03:15:32;3.03;;;2.80;;
37203;SDS011;23098;48.054;10.636;2022-08-01T03:18:01;4.40;;;3.00;;
37203;SDS011;23098;48.054;10.636;2022-08-01T03:20:29;3.10;;;2.80;;
37203;SDS011;23098;48.054;10.636;2022-08-01T03:22:57;3.00;;;2.70;;
37203;SDS011;23098;48.054;10.636;2022-08-01T03:25:28;6.45;;;2.85;;
37203;SDS011;23098;48.054;10.636;2022-08-01T03:27:57;3.50;;;2.67;;
37203;SDS011;23098;48.054;10.636;2022-08-01T03:30:26;5.30;;;2.80;;
37203;SDS011;23098;48.054;10.636;2022-08-01T03:32:52;4.55;;;2.90;;
37203;SDS011;23098;48.054;10.636;2022-08-01T03:35:20;3.72;;;3.10;;
37203;SDS011;23098;48.054;10.636;2022-08-01T03:37:50;4.60;;;2.72;;
37203;SDS011;23098;48.054;10.636;2022-08-01T03:40:23;3.35;;;2.70;;
37203;SDS011;23098;48.054;10.636;2022-08-01T03:43:11;4.85;;;2.95;;
37203;SDS011;23098;48.054;10.636;2022-08-01T03:45:46;4.75;;;2.78;;
37203;SDS011;23098;48.054;10.636;2022-08-01T03:48:17;3.25;;;2.90;;
37203;SDS011;23098;48.054;10.636;2022-08-01T03:50:45;3.95;;;3.10;;
37203;SDS011;23098;48.054;10.636;2022-08-01T03:53:13;4.60;;;3.10;;
37203;SDS011;23098;48.054;10.636;2022-08-01T03:55:41;3.75;;;3.17;;
37203;SDS011;23098;48.054;10.636;2022-08-01T03:58:08;3.60;;;3.30;;
37203;SDS011;23098;48.054;10.636;2022-08-01T04:00:36;4.97;;;3.00;;
37203;SDS011;23098;48.054;10.636;2022-08-01T04:03:04;3.38;;;3.00;;
37203;SDS011;23098;48.054;10.636;2022-08-01T04:05:31;7.65;;;3.20;;
37203;SDS011;23098;48.054;10.636;2022-08-01T04:07:57;4.28;;;2.97;;
37203;SDS011;23098;48.054;10.636;2022-08-01T04:10:24;5.35;;;3.20;;
37203;SDS011;23098;48.054;10.636;2022-08-01T04:12:50;3.22;;;2.90;;
37203;SDS011;23098;48.054;10.636;2022-08-01T04:15:16;6.63;;;3.38;;
37203;SDS011;23098;48.054;10.636;2022-08-01T04:17:42;6.85;;;3.25;;
37203;SDS011;23098;48.054;10.636;2022-08-01T04:20:08;5.38;;;3.45;;
37203;SDS011;23098;48.054;10.636;2022-08-01T04:22:34;4.35;;;3.10;;
37203;SDS011;23098;48.054;10.636;2022-08-01T04:25:01;8.02;;;3.47;;
37203;SDS011;23098;48.054;10.636;2022-08-01T04:27:35;7.03;;;3.40;;
37203;SDS011;23098;48.054;10.636;2022-08-01T04:30:03;6.25;;;3.17;;
37203;SDS011;23098;48.054;10.636;2022-08-01T04:32:31;3.95;;;2.78;;
37203;SDS011;23098;48.054;10.636;2022-08-01T04:34:59;6.82;;;3.00;;
37203;SDS011;23098;48.054;10.636;2022-08-01T04:37:30;12.95;;;3.20;;
37203;SDS011;23098;48.054;10.636;2022-08-01T04:39:57;13.52;;;3.10;;
37203;SDS011;23098;48.054;10.636;2022-08-01T04:42:24;10.90;;;3.13;;
37203;SDS011;23098;48.054;10.636;2022-08-01T04:44:50;14.20;;;3.40;;
37203;SDS011;23098;48.054;10.636;2022-08-01T04:47:15;12.75;;;3.00;;
37203;SDS011;23098;48.054;10.636;2022-08-01T04:49:42;7.10;;;2.63;;
37203;SDS011;23098;48.054;10.636;2022-08-01T04:52:10;5.25;;;2.85;;
37203;SDS011;23098;48.054;10.636;2022-08-01T04:54:36;6.25;;;2.72;;
37203;SDS011;23098;48.054;10.636;2022-08-01T04:57:02;12.23;;;2.70;;
37203;SDS011;23098;48.054;10.636;2022-08-01T04:59:29;7.15;;;2.40;;
37203;SDS011;23098;48.054;10.636;2022-08-01T05:02:09;7.05;;;2.33;;
37203;SDS011;23098;48.054;10.636;2022-08-01T05:04:36;6.15;;;2.30;;
37203;SDS011;23098;48.054;10.636;2022-08-01T05:07:03;5.40;;;1.83;;
37203;SDS011;23098;48.054;10.636;2022-08-01T05:09:29;3.20;;;2.00;;
37203;SDS011;23098;48.054;10.636;2022-08-01T05:11:55;8.07;;;2.30;;
37203;SDS011;23098;48.054;10.636;2022-08-01T05:14:23;5.35;;;1.80;;
37203;SDS011;23098;48.054;10.636;2022-08-01T05:16:50;4.45;;;1.80;;
37203;SDS011;23098;48.054;10.636;2022-08-01T05:19:16;10.07;;;2.00;;
37203;SDS011;23098;48.054;10.636;2022-08-01T05:21:41;5.00;;;1.80;;
37203;SDS011;23098;48.054;10.636;2022-08-01T05:24:07;3.05;;;2.22;;
37203;SDS011;23098;48.054;10.636;2022-08-01T05:26:33;3.42;;;1.83;;
37203;SDS011;23098;48.054;10.636;2022-08-01T05:28:59;4.25;;;1.98;;
37203;SDS011;23098;48.054;10.636;2022-08-01T05:31:24;3.97;;;1.80;;
37203;SDS011;23098;48.054;10.636;2022-08-01T05:33:50;5.00;;;2.00;;
37203;SDS011;23098;48.054;10.636;2022-08-01T05:36:15;2.95;;;2.00;;
37203;SDS011;23098;48.054;10.636;2022-08-01T05:38:41;3.47;;;1.90;;
37203;SDS011;23098;48.054;10.636;2022-08-01T05:41:06;2.33;;;1.90;;
37203;SDS011;23098;48.054;10.636;2022-08-01T05:43:32;3.35;;;2.00;;
37203;SDS011;23098;48.054;10.636;2022-08-01T05:45:58;4.03;;;2.15;;
37203;SDS011;23098;48.054;10.636;2022-08-01T05:48:23;4.22;;;2.10;;
37203;SDS011;23098;48.054;10.636;2022-08-01T05:50:49;4.63;;;1.90;;
37203;SDS011;23098;48.054;10.636;2022-08-01T05:53:15;2.72;;;2.10;;
37203;SDS011;23098;48.054;10.636;2022-08-01T05:55:41;6.18;;;2.20;;
37203;SDS011;23098;48.054;10.636;2022-08-01T05:58:06;3.45;;;2.10;;
37203;SDS011;23098;48.054;10.636;2022-08-01T06:00:32;2.92;;;2.00;;
37203;SDS011;23098;48.054;10.636;2022-08-01T06:02:57;2.80;;;1.88;;
37203;SDS011;23098;48.054;10.636;2022-08-01T06:05:23;3.30;;;1.90;;
37203;SDS011;23098;48.054;10.636;2022-08-01T06:07:48;5.57;;;1.90;;
37203;SDS011;23098;48.054;10.636;2022-08-01T06:10:14;7.30;;;2.08;;
37203;SDS011;23098;48.054;10.636;2022-08-01T06:12:39;3.10;;;1.75;;
37203;SDS011;23098;48.054;10.636;2022-08-01T06:15:05;2.20;;;2.00;;
37203;SDS011;23098;48.054;10.636;2022-08-01T06:17:31;3.42;;;1.77;;
37203;SDS011;23098;48.054;10.636;2022-08-01T06:19:57;2.20;;;1.95;;
37203;SDS011;23098;48.054;10.636;2022-08-01T06:22:23;2.15;;;1.83;;
37203;SDS011;23098;48.054;10.636;2022-08-01T06:24:48;2.58;;;1.85;;
37203;SDS011;23098;48.054;10.636;2022-08-01T06:27:14;4.72;;;2.00;;
37203;SDS011;23098;48.054;10.636;2022-08-01T06:29:39;4.65;;;2.30;;
37203;SDS011;23098;48.054;10.636;2022-08-01T06:32:08;2.83;;;2.13;;
37203;SDS011;23098;48.054;10.636;2022-08-01T06:34:34;2.42;;;2.08;;
37203;SDS011;23098;48.054;10.636;2022-08-01T06:37:00;2.95;;;2.20;;
37203;SDS011;23098;48.054;10.636;2022-08-01T06:39:25;3.53;;;2.20;;
37203;SDS011;23098;48.054;10.636;2022-08-01T06:41:51;4.85;;;2.03;;
37203;SDS011;23098;48.054;10.636;2022-08-01T06:44:17;5.10;;;2.20;;
37203;SDS011;23098;48.054;10.636;2022-08-01T06:46:42;2.40;;;2.10;;
37203;SDS011;23098;48.054;10.636;2022-08-01T06:49:08;2.65;;;2.08;;
37203;SDS011;23098;48.054;10.636;2022-08-01T06:51:33;5.10;;;1.95;;
37203;SDS011;23098;48.054;10.636;2022-08-01T06:53:59;3.25;;;1.92;;
37203;SDS011;23098;48.054;10.636;2022-08-01T06:56:24;3.00;;;2.20;;
37203;SDS011;23098;48.054;10.636;2022-08-01T06:58:51;3.03;;;2.05;;
37203;SDS011;23098;48.054;10.636;2022-08-01T07:01:16;2.22;;;1.80;;
37203;SDS011;23098;48.054;10.636;2022-08-01T07:03:42;2.95;;;1.67;;
37203;SDS011;23098;48.054;10.636;2022-08-01T07:06:08;4.10;;;1.98;;
37203;SDS011;23098;48.054;10.636;2022-08-01T07:08:34;2.50;;;1.90;;
37203;SDS011;23098;48.054;10.636;2022-08-01T07:11:00;1.80;;;1.70;;
37203;SDS011;23098;48.054;10.636;2022-08-01T07:13:26;2.70;;;2.10;;
37203;SDS011;23098;48.054;10.636;2022-08-01T07:15:52;4.32;;;2.03;;
37203;SDS011;23098;48.054;10.636;2022-08-01T07:18:18;1.92;;;1.70;;
37203;SDS011;23098;48.054;10.636;2022-08-01T07:20:44;4.80;;;2.38;;
37203;SDS011;23098;48.054;10.636;2022-08-01T07:23:11;7.10;;;2.20;;
37203;SDS011;23098;48.054;10.636;2022-08-01T07:25:37;2.85;;;2.25;;
37203;SDS011;23098;48.054;10.636;2022-08-01T07:28:03;3.17;;;2.30;;
37203;SDS011;23098;48.054;10.636;2022-08-01T07:30:29;4.63;;;2.28;;
37203;SDS011;23098;48.054;10.636;2022-08-01T07:32:54;4.13;;;2.58;;
37203;SDS011;23098;48.054;10.636;2022-08-01T07:35:20;7.07;;;2.50;;
37203;SDS011;23098;48.054;10.636;2022-08-01T07:37:46;6.03;;;2.30;;
37203;SDS011;23098;48.054;10.636;2022-08-01T07:40:12;4.45;;;2.65;;
37203;SDS011;23098;48.054;10.636;2022-08-01T07:42:38;3.30;;;2.55;;
37203;SDS011;23098;48.054;10.636;2022-08-01T07:45:03;2.92;;;2.60;;
37203;SDS011;23098;48.054;10.636;2022-08-01T07:47:29;2.97;;;2.67;;
37203;SDS011;23098;48.054;10.636;2022-08-01T07:49:59;3.70;;;2.58;;
37203;SDS011;23098;48.054;10.636;2022-08-01T07:52:25;6.67;;;2.80;;
37203;SDS011;23098;48.054;10.636;2022-08-01T07:54:51;7.05;;;2.60;;
37203;SDS011;23098;48.054;10.636;2022-08-01T07:57:17;3.33;;;2.70;;
37203;SDS011;23098;48.054;10.636;2022-08-01T07:59:43;4.57;;;2.55;;
37203;SDS011;23098;48.054;10.636;2022-08-01T08:02:09;2.53;;;2.33;;
37203;SDS011;23098;48.054;10.636;2022-08-01T08:04:34;3.55;;;2.60;;
37203;SDS011;23098;48.054;10.636;2022-08-01T08:07:00;3.08;;;2.65;;
37203;SDS011;23098;48.054;10.636;2022-08-01T08:09:26;4.45;;;2.80;;
37203;SDS011;23098;48.054;10.636;2022-08-01T08:11:51;4.65;;;2.70;;
37203;SDS011;23098;48.054;10.636;2022-08-01T08:14:17;3.95;;;2.53;;
37203;SDS011;23098;48.054;10.636;2022-08-01T08:16:43;3.20;;;2.30;;
37203;SDS011;23098;48.054;10.636;2022-08-01T08:19:08;3.08;;;2.45;;
37203;SDS011;23098;48.054;10.636;2022-08-01T08:21:34;4.13;;;2.30;;
37203;SDS011;23098;48.054;10.636;2022-08-01T08:24:01;3.47;;;2.20;;
37203;SDS011;23098;48.054;10.636;2022-08-01T08:26:45;2.65;;;2.03;;
37203;SDS011;23098;48.054;10.636;2022-08-01T08:29:11;2.92;;;2.60;;
37203;SDS011;23098;48.054;10.636;2022-08-01T08:31:37;3.05;;;2.50;;
37203;SDS011;23098;48.054;10.636;2022-08-01T08:34:03;1.95;;;1.85;;
37203;SDS011;23098;48.054;10.636;2022-08-01T08:36:29;4.63;;;2.13;;
37203;SDS011;23098;48.054;10.636;2022-08-01T08:38:55;4.25;;;2.33;;
37203;SDS011;23098;48.054;10.636;2022-08-01T08:41:21;3.28;;;2.10;;
37203;SDS011;23098;48.054;10.636;2022-08-01T08:43:48;4.40;;;2.55;;
37203;SDS011;23098;48.054;10.636;2022-08-01T08:46:14;3.33;;;2.45;;
37203;SDS011;23098;48.054;10.636;2022-08-01T08:48:41;2.65;;;2.30;;
37203;SDS011;23098;48.054;10.636;2022-08-01T08:51:07;2.90;;;2.00;;
37203;SDS011;23098;48.054;10.636;2022-08-01T08:53:36;2.20;;;2.00;;
37203;SDS011;23098;48.054;10.636;2022-08-01T08:56:03;4.03;;;2.20;;
37203;SDS011;23098;48.054;10.636;2022-08-01T08:58:32;3.15;;;1.95;;
37203;SDS011;23098;48.054;10.636;2022-08-01T09:01:04;2.53;;;2.20;;
37203;SDS011;23098;48.054;10.636;2022-08-01T09:03:31;4.65;;;1.90;;
37203;SDS011;23098;48.054;10.636;2022-08-01T09:05:57;2.35;;;1.90;;
37203;SDS011;23098;48.054;10.636;2022-08-01T09:08:23;3.08;;;2.10;;
37203;SDS011;23098;48.054;10.636;2022-08-01T09:10:49;2.22;;;2.03;;
37203;SDS011;23098;48.054;10.636;2022-08-01T09:13:15;3.67;;;2.10;;
37203;SDS011;23098;48.054;10.636;2022-08-01T09:15:45;2.20;;;2.00;;
37203;SDS011;23098;48.054;10.636;2022-08-01T09:23:35;3.38;;;1.77;;
37203;SDS011;23098;48.054;10.636;2022-08-01T09:26:11;2.95;;;1.90;;
37203;SDS011;23098;48.054;10.636;2022-08-01T09:28:39;4.53;;;2.22;;
37203;SDS011;23098;48.054;10.636;2022-08-01T09:31:09;3.53;;;2.00;;
37203;SDS011;23098;48.054;10.636;2022-08-01T09:38:54;3.10;;;1.90;;
37203;SDS011;23098;48.054;10.636;2022-08-01T09:41:29;2.33;;;2.00;;
37203;SDS011;23098;48.054;10.636;2022-08-01T09:43:56;1.92;;;1.60;;
37203;SDS011;23098;48.054;10.636;2022-08-01T09:46:23;2.25;;;1.65;;
37203;SDS011;23098;48.054;10.636;2022-08-01T09:49:00;4.38;;;1.80;;
37203;SDS011;23098;48.054;10.636;2022-08-01T09:51:30;2.42;;;1.80;;
37203;SDS011;23098;48.054;10.636;2022-08-01T09:54:06;5.10;;;1.80;;
37203;SDS011;23098;48.054;10.636;2022-08-01T09:56:40;2.70;;;1.80;;
37203;SDS011;23098;48.054;10.636;2022-08-01T09:59:07;1.90;;;1.70;;
37203;SDS011;23098;48.054;10.636;2022-08-01T10:01:42;2.00;;;1.80;;
37203;SDS011;23098;48.054;10.636;2022-08-01T10:04:09;4.95;;;2.15;;
37203;SDS011;23098;48.054;10.636;2022-08-01T10:06:48;2.03;;;1.60;;
37203;SDS011;23098;48.054;10.636;2022-08-01T10:09:30;4.03;;;1.80;;
37203;SDS011;23098;48.054;10.636;2022-08-01T10:12:04;2.95;;;1.60;;
37203;SDS011;23098;48.054;10.636;2022-08-01T10:14:30;2.28;;;1.65;;
37203;SDS011;23098;48.054;10.636;2022-08-01T10:16:58;1.75;;;1.60;;
37203;SDS011;23098;48.054;10.636;2022-08-01T10:19:26;2.70;;;1.80;;
37203;SDS011;23098;48.054;10.636;2022-08-01T10:21:55;2.85;;;1.80;;
37203;SDS011;23098;48.054;10.636;2022-08-01T10:24:25;2.78;;;1.77;;
37203;SDS011;23098;48.054;10.636;2022-08-01T10:26:57;2.63;;;1.77;;
37203;SDS011;23098;48.054;10.636;2022-08-01T10:29:27;2.08;;;1.75;;
37203;SDS011;23098;48.054;10.636;2022-08-01T10:31:56;2.42;;;1.52;;
37203;SDS011;23098;48.054;10.636;2022-08-01T10:34:23;1.52;;;1.30;;
37203;SDS011;23098;48.054;10.636;2022-08-01T10:36:50;3.00;;;1.50;;
37203;SDS011;23098;48.054;10.636;2022-08-01T10:39:16;2.70;;;1.42;;
37203;SDS011;23098;48.054;10.636;2022-08-01T10:41:44;1.63;;;1.50;;
37203;SDS011;23098;48.054;10.636;2022-08-01T10:44:12;4.15;;;1.75;;
37203;SDS011;23098;48.054;10.636;2022-08-01T10:46:39;3.03;;;1.55;;
37203;SDS011;23098;48.054;10.636;2022-08-01T10:49:10;1.83;;;1.50;;
37203;SDS011;23098;48.054;10.636;2022-08-01T10:51:39;2.08;;;1.58;;
37203;SDS011;23098;48.054;10.636;2022-08-01T10:54:10;3.63;;;1.60;;
37203;SDS011;23098;48.054;10.636;2022-08-01T10:56:39;2.08;;;1.63;;
37203;SDS011;23098;48.054;10.636;2022-08-01T10:59:10;1.88;;;1.60;;
37203;SDS011;23098;48.054;10.636;2022-08-01T11:01:57;2.33;;;1.58;;
37203;SDS011;23098;48.054;10.636;2022-08-01T11:07:04;2.45;;;1.60;;
37203;SDS011;23098;48.054;10.636;2022-08-01T11:09:45;2.10;;;1.90;;
37203;SDS011;23098;48.054;10.636;2022-08-01T11:17:36;2.67;;;1.50;;
37203;SDS011;23098;48.054;10.636;2022-08-01T11:20:13;3.53;;;1.52;;
37203;SDS011;23098;48.054;10.636;2022-08-01T11:28:24;2.30;;;1.63;;
37203;SDS011;23098;48.054;10.636;2022-08-01T11:30:54;2.13;;;1.80;;
37203;SDS011;23098;48.054;10.636;2022-08-01T11:38:39;1.77;;;1.50;;
37203;SDS011;23098;48.054;10.636;2022-08-01T11:41:27;1.75;;;1.48;;
37203;SDS011;23098;48.054;10.636;2022-08-01T11:44:00;1.90;;;1.33;;
37203;SDS011;23098;48.054;10.636;2022-08-01T11:49:22;2.15;;;1.40;;
37203;SDS011;23098;48.054;10.636;2022-08-01T11:52:01;4.43;;;1.40;;
37203;SDS011;23098;48.054;10.636;2022-08-01T11:54:31;2.42;;;1.50;;
37203;SDS011;23098;48.054;10.636;2022-08-01T11:59:43;2.50;;;1.30;;
37203;SDS011;23098;48.054;10.636;2022-08-01T12:02:17;3.83;;;1.52;;
37203;SDS011;23098;48.054;10.636;2022-08-01T12:04:56;3.40;;;1.20;;
37203;SDS011;23098;48.054;10.636;2022-08-01T12:07:28;7.32;;;1.65;;
37203;SDS011;23098;48.054;10.636;2022-08-01T12:10:09;3.38;;;1.50;;
37203;SDS011;23098;48.054;10.636;2022-08-01T12:12:43;4.00;;;1.55;;
37203;SDS011;23098;48.054;10.636;2022-08-01T12:15:15;1.75;;;1.40;;
37203;SDS011;23098;48.054;10.636;2022-08-01T12:17:44;2.35;;;1.42;;
37203;SDS011;23098;48.054;10.636;2022-08-01T12:20:12;1.30;;;1.20;;
37203;SDS011;23098;48.054;10.636;2022-08-01T12:22:39;1.38;;;1.20;;
37203;SDS011;23098;48.054;10.636;2022-08-01T12:25:07;2.30;;;1.30;;
37203;SDS011;23098;48.054;10.636;2022-08-01T12:27:36;3.20;;;1.40;;
37203;SDS011;23098;48.054;10.636;2022-08-01T12:30:06;3.30;;;1.38;;
37203;SDS011;23098;48.054;10.636;2022-08-01T12:32:43;1.65;;;1.38;;
37203;SDS011;23098;48.054;10.636;2022-08-01T12:38:04;2.58;;;1.30;;
37203;SDS011;23098;48.054;10.636;2022-08-01T12:40:37;1.45;;;1.15;;
37203;SDS011;23098;48.054;10.636;2022-08-01T12:43:08;4.68;;;1.30;;
37203;SDS011;23098;48.054;10.636;2022-08-01T12:45:39;6.07;;;2.00;;
37203;SDS011;23098;48.054;10.636;2022-08-01T12:48:11;2.42;;;1.25;;
